createdAt,value
2022-10-10T00:01:04.623Z,11.53
2022-10-10T00:06:36.072Z,11.60
2022-10-10T00:12:07.827Z,11.80
2022-10-10T00:17:39.701Z,11.86
2022-10-10T00:23:11.543Z,11.96
2022-10-10T00:28:43.339Z,12.05
2022-10-10T00:34:15.064Z,12.16
2022-10-10T00:39:46.747Z,12.19
2022-10-10T00:45:18.418Z,12.26
2022-10-10T00:50:50.132Z,12.26
2022-10-10T00:56:21.874Z,12.27
2022-10-10T01:01:53.611Z,12.26
2022-10-10T01:07:25.402Z,12.36
2022-10-10T01:12:57.042Z,12.43
2022-10-10T01:18:28.960Z,12.54
2022-10-10T01:24:00.670Z,12.60
2022-10-10T01:29:33.210Z,12.67
2022-10-10T01:35:05.198Z,12.75
2022-10-10T01:40:36.597Z,12.79
2022-10-10T01:46:08.370Z,12.82
2022-10-10T01:51:40.110Z,12.85
2022-10-10T01:57:11.785Z,12.88
2022-10-10T02:02:43.626Z,12.88
2022-10-10T02:08:15.483Z,12.92
2022-10-10T02:13:48.236Z,12.95
2022-10-10T02:24:51.783Z,12.98
2022-10-10T02:30:29.872Z,13.06
2022-10-10T02:36:04.013Z,13.06
2022-10-10T02:47:10.029Z,13.15
2022-10-10T02:52:41.726Z,13.19
2022-10-10T02:58:13.612Z,13.20
2022-10-10T03:03:45.273Z,13.27
2022-10-10T03:09:17.103Z,13.29
2022-10-10T03:14:48.592Z,13.36
2022-10-10T03:20:20.373Z,13.40
2022-10-10T03:25:51.761Z,13.48
2022-10-10T03:31:23.756Z,13.54
2022-10-10T03:36:57.808Z,13.60
2022-10-10T03:42:29.582Z,13.65
2022-10-10T03:53:32.938Z,13.74
2022-10-10T04:04:36.639Z,13.77
2022-10-10T04:10:08.395Z,13.80
2022-10-10T04:15:40.175Z,13.81
2022-10-10T04:21:12.110Z,13.85
2022-10-10T04:26:43.780Z,13.85
2022-10-10T04:32:15.616Z,13.86
2022-10-10T04:37:47.379Z,13.89
2022-10-10T04:43:21.794Z,13.86
2022-10-10T04:48:53.303Z,13.86
2022-10-10T04:54:25.098Z,13.88
2022-10-10T04:59:57.084Z,13.84
2022-10-10T05:05:28.725Z,13.81
2022-10-10T05:11:00.612Z,13.75
2022-10-10T05:16:34.239Z,13.74
2022-10-10T05:22:07.140Z,13.70
2022-10-10T05:27:38.782Z,13.61
2022-10-10T05:33:12.884Z,13.55
2022-10-10T05:38:44.620Z,13.54
2022-10-10T05:44:16.351Z,13.48
2022-10-10T05:49:49.154Z,13.46
2022-10-10T05:55:20.959Z,13.38
2022-10-10T06:00:52.834Z,13.41
2022-10-10T06:06:24.630Z,13.41
2022-10-10T06:11:56.241Z,13.41
2022-10-10T06:17:28.168Z,13.54
2022-10-10T06:22:59.869Z,13.62
2022-10-10T06:28:31.721Z,13.86
2022-10-10T06:34:03.784Z,13.99
2022-10-10T06:39:35.353Z,14.41
2022-10-10T06:45:07.337Z,14.74
2022-10-10T06:50:39.102Z,15.14
2022-10-10T06:56:10.759Z,15.24
2022-10-10T07:01:42.461Z,15.39
2022-10-10T07:07:14.296Z,15.34
2022-10-10T07:12:48.281Z,15.37
2022-10-10T07:18:19.973Z,15.51
2022-10-10T07:23:51.827Z,15.84
2022-10-10T07:34:55.535Z,16.03
2022-10-10T07:40:27.174Z,16.16
2022-10-10T07:51:30.173Z,16.62
2022-10-10T07:57:02.161Z,17.03
2022-10-10T08:02:33.963Z,17.33
2022-10-10T08:08:05.766Z,17.88
2022-10-10T08:13:37.258Z,18.19
2022-10-10T08:19:09.288Z,18.89
2022-10-10T08:27:00.986Z,19.55
2022-10-10T08:32:32.783Z,19.79
2022-10-10T08:38:04.635Z,20.35
2022-10-10T08:43:36.274Z,20.59
2022-10-10T08:56:57.975Z,21.44
2022-10-10T09:02:43.598Z,21.61
2022-10-10T09:08:01.014Z,22.06
2022-10-10T09:13:32.787Z,22.20
2022-10-10T09:24:34.173Z,22.65
2022-10-10T09:30:05.871Z,22.93
2022-10-10T09:35:37.688Z,22.99
2022-10-10T09:41:09.558Z,23.03
2022-10-10T09:46:41.274Z,23.09
2022-10-10T09:52:13.124Z,23.23
2022-10-10T09:57:44.951Z,23.33
2022-10-10T10:03:16.692Z,23.47
2022-10-10T10:14:17.507Z,23.77
2022-10-10T10:19:49.250Z,23.82
2022-10-10T10:25:20.967Z,23.99
2022-10-10T10:30:52.877Z,23.97
2022-10-10T10:36:24.660Z,23.96
2022-10-10T10:41:56.461Z,23.93
2022-10-10T10:47:27.992Z,23.97
2022-10-10T10:52:59.517Z,24.06
2022-10-10T11:05:17.847Z,24.48
2022-10-10T11:09:49.651Z,24.65
2022-10-10T11:15:06.675Z,24.68
2022-10-10T11:20:38.296Z,24.89
2022-10-10T11:31:39.589Z,25.05
2022-10-10T11:37:11.558Z,25.06
2022-10-10T11:42:43.145Z,25.03
2022-10-10T11:53:45.799Z,24.98
2022-10-10T11:59:17.408Z,25.02
2022-10-10T12:04:49.103Z,25.05
2022-10-10T12:15:50.262Z,25.33
2022-10-10T12:21:21.437Z,25.34
2022-10-10T12:26:52.779Z,25.38
2022-10-10T12:32:24.118Z,25.40
2022-10-10T12:43:25.144Z,25.50
2022-10-10T12:48:56.805Z,25.42
2022-10-10T12:54:28.544Z,25.38
2022-10-10T13:00:02.200Z,25.33
2022-10-10T13:05:31.668Z,25.29
2022-10-10T13:11:03.935Z,25.22
2022-10-10T13:22:05.046Z,25.13
2022-10-10T13:27:37.200Z,25.09
2022-10-10T13:33:08.610Z,24.96
2022-10-10T13:44:10.095Z,24.68
2022-10-10T13:49:41.955Z,24.57
2022-10-10T13:55:13.476Z,24.37
2022-10-10T14:06:14.962Z,24.10
2022-10-10T14:11:46.479Z,24.05
2022-10-10T14:17:18.133Z,23.96
2022-10-10T14:22:51.486Z,23.88
2022-10-10T14:28:23.245Z,23.82
2022-10-10T14:33:55.052Z,23.79
2022-10-10T14:39:26.791Z,23.75
2022-10-10T14:44:58.388Z,23.72
2022-10-10T14:50:31.115Z,23.58
2022-10-10T14:56:02.952Z,23.47
2022-10-10T15:01:34.732Z,23.23
2022-10-10T15:07:13.343Z,23.09
2022-10-10T15:12:38.379Z,22.86
2022-10-10T15:18:39.248Z,22.76
2022-10-10T15:23:41.704Z,22.57
2022-10-10T15:29:13.364Z,22.50
2022-10-10T15:34:45.331Z,22.37
2022-10-10T15:40:16.889Z,22.28
2022-10-10T15:45:55.902Z,22.17
2022-10-10T15:51:19.937Z,22.07
2022-10-10T15:56:51.697Z,22.03
2022-10-10T16:02:23.670Z,21.88
2022-10-10T16:07:55.504Z,21.78
2022-10-10T16:13:27.443Z,21.64
2022-10-10T16:18:58.978Z,21.55
2022-10-10T16:24:30.821Z,21.37
2022-10-10T16:30:02.660Z,21.27
2022-10-10T16:35:34.436Z,21.11
2022-10-10T16:41:06.224Z,21.03
2022-10-10T16:46:37.986Z,20.83
2022-10-10T16:52:09.566Z,20.75
2022-10-10T16:57:41.883Z,20.61
2022-10-10T17:03:13.773Z,20.51
2022-10-10T17:14:15.134Z,20.33
2022-10-10T17:19:46.881Z,20.19
2022-10-10T17:25:18.406Z,20.10
2022-10-10T17:30:50.095Z,19.95
2022-10-10T17:36:21.910Z,19.89
2022-10-10T17:47:23.163Z,19.64
2022-10-10T17:52:54.889Z,19.45
2022-10-10T17:58:27.133Z,19.37
2022-10-10T18:03:58.924Z,19.10
2022-10-10T18:09:30.849Z,18.96
2022-10-10T18:15:02.646Z,18.62
2022-10-10T18:20:34.182Z,18.51
2022-10-10T18:26:06.016Z,18.24
2022-10-10T18:31:37.777Z,18.12
2022-10-10T18:37:09.629Z,17.84
2022-10-10T18:42:41.413Z,17.75
2022-10-10T18:48:12.869Z,17.55
2022-10-10T18:53:44.620Z,17.42
2022-10-10T18:59:16.683Z,17.26
2022-10-10T19:04:48.210Z,17.19
2022-10-10T19:10:19.617Z,16.99
2022-10-10T19:15:51.658Z,16.91
2022-10-10T19:21:23.393Z,16.71
2022-10-10T19:26:55.305Z,16.59
2022-10-10T19:32:26.838Z,16.39
2022-10-10T19:37:58.659Z,16.31
2022-10-10T19:43:30.312Z,16.15
2022-10-10T19:49:01.784Z,16.08
2022-10-10T19:54:34.207Z,15.95
2022-10-10T20:00:05.967Z,15.88
2022-10-10T20:05:37.817Z,15.75
2022-10-10T20:11:09.828Z,15.69
2022-10-10T20:16:41.395Z,15.64
2022-10-10T20:22:14.365Z,15.58
2022-10-10T20:33:15.651Z,15.41
2022-10-10T20:38:47.405Z,15.34
2022-10-10T20:44:19.313Z,15.27
2022-10-10T20:49:50.750Z,15.21
2022-10-10T20:55:22.586Z,15.12
2022-10-10T21:06:24.174Z,14.99
2022-10-10T21:11:56.012Z,14.92
2022-10-10T21:17:27.699Z,14.82
2022-10-10T21:22:59.690Z,14.78
2022-10-10T21:28:31.425Z,14.68
2022-10-10T21:34:03.256Z,14.64
2022-10-10T21:39:35.008Z,14.57
2022-10-10T21:45:06.714Z,14.50
2022-10-10T21:50:38.548Z,14.45
2022-10-10T21:56:10.553Z,14.41
2022-10-10T22:01:42.149Z,14.31
2022-10-10T22:03:53.910Z,0.00
2022-10-10T22:09:25.377Z,14.24
2022-10-10T22:20:26.209Z,14.08
2022-10-10T22:25:58.133Z,14.01
2022-10-10T22:31:29.834Z,13.95
2022-10-10T22:42:33.317Z,13.95
2022-10-10T22:48:04.945Z,13.99
2022-10-10T22:53:36.483Z,14.13
2022-10-10T22:59:08.757Z,14.21
2022-10-10T23:04:40.677Z,14.30
2022-10-10T23:10:12.465Z,14.29
2022-10-10T23:15:44.117Z,14.21
2022-10-10T23:26:47.607Z,14.13
2022-10-10T23:32:18.934Z,14.13
2022-10-10T23:37:50.334Z,14.17
2022-10-10T23:48:54.045Z,14.30
2022-10-10T23:54:25.952Z,14.36
2022-10-10T23:59:57.734Z,14.45
